sensor_id;sensor_type;location;lat;lon;timestamp;pressure;altitude;pressure_sealevel;temperature;humidity
6453;BME280;3259;51.080;13.712;2023-04-30T00:00:46;100652.38;;;26.10;44.42
6453;BME280;3259;51.080;13.712;2023-04-30T00:03:36;100654.41;;;26.02;44.68
6453;BME280;3259;51.080;13.712;2023-04-30T00:06:25;100654.00;;;26.05;44.66
6453;BME280;3259;51.080;13.712;2023-04-30T00:09:14;100655.88;;;26.04;44.64
6453;BME280;3259;51.080;13.712;2023-04-30T00:12:03;100655.81;;;25.98;44.76
6453;BME280;3259;51.080;13.712;2023-04-30T00:14:52;100665.50;;;25.99;44.72
6453;BME280;3259;51.080;13.712;2023-04-30T00:17:42;100662.19;;;25.97;44.73
6453;BME280;3259;51.080;13.712;2023-04-30T00:20:32;100662.03;;;26.05;44.48
6453;BME280;3259;51.080;13.712;2023-04-30T00:23:21;100671.28;;;26.02;44.65
6453;BME280;3259;51.080;13.712;2023-04-30T00:26:10;100665.97;;;26.09;45.00
6453;BME280;3259;51.080;13.712;2023-04-30T00:28:58;100665.13;;;26.08;44.38
6453;BME280;3259;51.080;13.712;2023-04-30T00:31:47;100673.75;;;26.04;44.62
6453;BME280;3259;51.080;13.712;2023-04-30T00:34:36;100670.88;;;26.05;44.62
6453;BME280;3259;51.080;13.712;2023-04-30T00:37:26;100677.47;;;26.09;44.35
6453;BME280;3259;51.080;13.712;2023-04-30T00:40:15;100676.84;;;26.07;44.55
6453;BME280;3259;51.080;13.712;2023-04-30T00:43:03;100680.69;;;25.98;44.72
6453;BME280;3259;51.080;13.712;2023-04-30T00:45:52;100680.91;;;25.97;44.67
6453;BME280;3259;51.080;13.712;2023-04-30T00:48:41;100689.13;;;25.95;44.51
6453;BME280;3259;51.080;13.712;2023-04-30T00:51:30;100690.53;;;25.92;44.82
6453;BME280;3259;51.080;13.712;2023-04-30T00:54:21;100700.03;;;26.00;44.54
6453;BME280;3259;51.080;13.712;2023-04-30T00:57:11;100693.66;;;26.01;44.48
6453;BME280;3259;51.080;13.712;2023-04-30T01:00:00;100693.03;;;25.99;44.39
6453;BME280;3259;51.080;13.712;2023-04-30T01:02:49;100697.53;;;25.92;44.34
6453;BME280;3259;51.080;13.712;2023-04-30T01:05:38;100704.56;;;26.00;44.56
6453;BME280;3259;51.080;13.712;2023-04-30T01:08:27;100706.41;;;25.99;44.42
6453;BME280;3259;51.080;13.712;2023-04-30T01:11:26;100713.41;;;26.00;44.44
6453;BME280;3259;51.080;13.712;2023-04-30T01:14:22;100715.72;;;26.03;44.24
6453;BME280;3259;51.080;13.712;2023-04-30T01:17:19;100716.50;;;26.04;44.49
6453;BME280;3259;51.080;13.712;2023-04-30T01:20:09;100720.22;;;26.03;44.36
6453;BME280;3259;51.080;13.712;2023-04-30T01:23:07;100716.88;;;25.94;44.45
6453;BME280;3259;51.080;13.712;2023-04-30T01:26:10;100719.31;;;25.96;44.72
6453;BME280;3259;51.080;13.712;2023-04-30T01:29:03;100721.06;;;25.83;44.57
6453;BME280;3259;51.080;13.712;2023-04-30T01:31:52;100734.06;;;25.86;44.83
6453;BME280;3259;51.080;13.712;2023-04-30T01:34:41;100733.59;;;25.82;44.83
6453;BME280;3259;51.080;13.712;2023-04-30T01:37:34;100738.56;;;25.85;45.09
6453;BME280;3259;51.080;13.712;2023-04-30T01:40:31;100737.72;;;25.84;44.60
6453;BME280;3259;51.080;13.712;2023-04-30T01:43:33;100739.16;;;25.81;44.92
6453;BME280;3259;51.080;13.712;2023-04-30T01:46:28;100739.41;;;25.86;44.69
6453;BME280;3259;51.080;13.712;2023-04-30T01:49:22;100746.78;;;25.83;44.80
6453;BME280;3259;51.080;13.712;2023-04-30T01:52:17;100748.41;;;25.84;44.91
6453;BME280;3259;51.080;13.712;2023-04-30T01:55:12;100754.16;;;25.82;44.73
6453;BME280;3259;51.080;13.712;2023-04-30T01:58:03;100762.25;;;25.88;44.69
6453;BME280;3259;51.080;13.712;2023-04-30T02:00:52;100763.38;;;25.79;44.89
6453;BME280;3259;51.080;13.712;2023-04-30T02:03:43;100777.94;;;25.77;44.84
6453;BME280;3259;51.080;13.712;2023-04-30T02:06:31;100776.84;;;25.86;44.52
6453;BME280;3259;51.080;13.712;2023-04-30T02:09:20;100777.59;;;25.80;44.55
6453;BME280;3259;51.080;13.712;2023-04-30T02:12:09;100786.41;;;25.80;44.56
6453;BME280;3259;51.080;13.712;2023-04-30T02:14:58;100786.41;;;25.80;44.84
6453;BME280;3259;51.080;13.712;2023-04-30T02:17:47;100802.78;;;25.71;44.89
6453;BME280;3259;51.080;13.712;2023-04-30T02:20:37;100805.13;;;25.80;44.64
6453;BME280;3259;51.080;13.712;2023-04-30T02:23:26;100815.38;;;25.77;44.89
6453;BME280;3259;51.080;13.712;2023-04-30T02:26:14;100816.59;;;25.74;44.98
6453;BME280;3259;51.080;13.712;2023-04-30T02:29:03;100822.50;;;25.70;45.10
6453;BME280;3259;51.080;13.712;2023-04-30T02:31:52;100819.38;;;25.66;44.84
6453;BME280;3259;51.080;13.712;2023-04-30T02:34:41;100825.56;;;25.67;44.80
6453;BME280;3259;51.080;13.712;2023-04-30T02:37:31;100826.44;;;25.74;44.91
6453;BME280;3259;51.080;13.712;2023-04-30T02:40:19;100827.41;;;25.66;45.15
6453;BME280;3259;51.080;13.712;2023-04-30T02:43:08;100829.44;;;25.64;45.11
6453;BME280;3259;51.080;13.712;2023-04-30T02:45:57;100832.91;;;25.65;44.99
6453;BME280;3259;51.080;13.712;2023-04-30T02:48:45;100837.97;;;25.74;44.67
6453;BME280;3259;51.080;13.712;2023-04-30T02:51:34;100839.97;;;25.72;45.00
6453;BME280;3259;51.080;13.712;2023-04-30T02:54:24;100835.03;;;25.69;44.87
6453;BME280;3259;51.080;13.712;2023-04-30T02:57:13;100841.72;;;25.80;44.65
6453;BME280;3259;51.080;13.712;2023-04-30T03:00:02;100845.78;;;25.76;44.68
6453;BME280;3259;51.080;13.712;2023-04-30T03:02:51;100850.50;;;25.74;44.87
6453;BME280;3259;51.080;13.712;2023-04-30T03:05:39;100851.13;;;25.76;44.86
6453;BME280;3259;51.080;13.712;2023-04-30T03:08:28;100861.47;;;25.79;44.56
6453;BME280;3259;51.080;13.712;2023-04-30T03:11:18;100862.19;;;25.73;44.71
6453;BME280;3259;51.080;13.712;2023-04-30T03:14:07;100868.25;;;25.81;44.79
6453;BME280;3259;51.080;13.712;2023-04-30T03:16:55;100870.47;;;25.77;44.85
6453;BME280;3259;51.080;13.712;2023-04-30T03:19:44;100859.59;;;25.79;44.68
6453;BME280;3259;51.080;13.712;2023-04-30T03:22:33;100870.47;;;25.77;44.61
6453;BME280;3259;51.080;13.712;2023-04-30T03:25:21;100872.56;;;25.82;44.63
6453;BME280;3259;51.080;13.712;2023-04-30T03:28:11;100878.69;;;25.76;44.59
6453;BME280;3259;51.080;13.712;2023-04-30T03:31:00;100881.16;;;25.77;44.65
6453;BME280;3259;51.080;13.712;2023-04-30T03:33:51;100882.75;;;25.72;44.73
6453;BME280;3259;51.080;13.712;2023-04-30T03:36:40;100886.63;;;25.70;44.92
6453;BME280;3259;51.080;13.712;2023-04-30T03:39:28;100891.34;;;25.68;44.75
6453;BME280;3259;51.080;13.712;2023-04-30T03:42:17;100892.63;;;25.72;44.57
6453;BME280;3259;51.080;13.712;2023-04-30T03:45:08;100898.34;;;25.69;44.83
6453;BME280;3259;51.080;13.712;2023-04-30T03:47:56;100900.38;;;25.67;44.80
6453;BME280;3259;51.080;13.712;2023-04-30T03:50:45;100898.34;;;25.69;44.69
6453;BME280;3259;51.080;13.712;2023-04-30T03:53:34;100914.56;;;25.67;44.75
6453;BME280;3259;51.080;13.712;2023-04-30T03:56:22;100907.38;;;25.68;44.39
6453;BME280;3259;51.080;13.712;2023-04-30T03:59:11;100909.06;;;25.54;44.48
6453;BME280;3259;51.080;13.712;2023-04-30T04:02:02;100918.19;;;25.60;44.59
6453;BME280;3259;51.080;13.712;2023-04-30T04:04:50;100914.72;;;25.66;44.74
6453;BME280;3259;51.080;13.712;2023-04-30T04:07:39;100922.19;;;25.70;44.48
6453;BME280;3259;51.080;13.712;2023-04-30T04:10:28;100920.81;;;25.74;44.74
6453;BME280;3259;51.080;13.712;2023-04-30T04:13:17;100921.38;;;25.70;44.85
6453;BME280;3259;51.080;13.712;2023-04-30T04:16:06;100921.38;;;25.70;44.57
6453;BME280;3259;51.080;13.712;2023-04-30T04:18:56;100926.44;;;25.65;44.93
6453;BME280;3259;51.080;13.712;2023-04-30T04:21:45;100930.03;;;25.72;44.72
6453;BME280;3259;51.080;13.712;2023-04-30T04:24:34;100935.38;;;25.72;44.54
6453;BME280;3259;51.080;13.712;2023-04-30T04:27:24;100942.19;;;25.74;44.75
6453;BME280;3259;51.080;13.712;2023-04-30T04:30:12;100947.81;;;25.65;44.72
6453;BME280;3259;51.080;13.712;2023-04-30T04:33:01;100951.31;;;25.65;44.79
6453;BME280;3259;51.080;13.712;2023-04-30T04:35:51;100958.16;;;25.68;44.84
6453;BME280;3259;51.080;13.712;2023-04-30T04:38:40;100958.03;;;25.76;44.70
6453;BME280;3259;51.080;13.712;2023-04-30T04:41:29;100965.88;;;25.77;44.70
6453;BME280;3259;51.080;13.712;2023-04-30T04:44:19;100969.09;;;25.73;44.79
6453;BME280;3259;51.080;13.712;2023-04-30T04:47:08;100971.13;;;25.71;44.90
6453;BME280;3259;51.080;13.712;2023-04-30T04:49:58;100972.41;;;25.75;44.74
6453;BME280;3259;51.080;13.712;2023-04-30T04:52:48;100975.91;;;25.75;44.76
6453;BME280;3259;51.080;13.712;2023-04-30T04:55:37;100979.69;;;25.81;44.25
6453;BME280;3259;51.080;13.712;2023-04-30T04:58:26;100984.00;;;25.82;44.37
6453;BME280;3259;51.080;13.712;2023-04-30T05:01:15;100984.00;;;25.82;44.69
6453;BME280;3259;51.080;13.712;2023-04-30T05:04:04;100985.75;;;25.75;44.68
6453;BME280;3259;51.080;13.712;2023-04-30T05:06:53;100992.50;;;25.71;44.58
6453;BME280;3259;51.080;13.712;2023-04-30T05:09:44;100994.97;;;25.72;44.69
6453;BME280;3259;51.080;13.712;2023-04-30T05:12:33;100990.66;;;25.71;44.61
6453;BME280;3259;51.080;13.712;2023-04-30T05:15:22;100992.69;;;25.69;44.68
6453;BME280;3259;51.080;13.712;2023-04-30T05:18:10;100998.03;;;25.69;44.85
6453;BME280;3259;51.080;13.712;2023-04-30T05:20:59;101002.56;;;25.69;44.91
6453;BME280;3259;51.080;13.712;2023-04-30T05:23:48;101009.28;;;25.65;44.87
6453;BME280;3259;51.080;13.712;2023-04-30T05:26:38;101001.16;;;25.73;44.93
6453;BME280;3259;51.080;13.712;2023-04-30T05:29:26;101013.88;;;25.71;44.91
6453;BME280;3259;51.080;13.712;2023-04-30T05:32:15;101013.25;;;25.69;44.79
6453;BME280;3259;51.080;13.712;2023-04-30T05:35:04;101018.59;;;25.69;44.65
6453;BME280;3259;51.080;13.712;2023-04-30T05:37:53;101017.28;;;25.65;44.90
6453;BME280;3259;51.080;13.712;2023-04-30T05:40:43;101018.47;;;25.77;44.44
6453;BME280;3259;51.080;13.712;2023-04-30T05:43:33;101021.91;;;25.71;44.76
6453;BME280;3259;51.080;13.712;2023-04-30T05:46:21;101017.19;;;25.73;44.75
6453;BME280;3259;51.080;13.712;2023-04-30T05:49:10;101029.53;;;25.74;45.18
6453;BME280;3259;51.080;13.712;2023-04-30T05:51:59;101035.25;;;25.71;45.19
6453;BME280;3259;51.080;13.712;2023-04-30T05:54:49;101024.19;;;25.74;44.84
6453;BME280;3259;51.080;13.712;2023-04-30T05:57:38;101020.50;;;25.75;44.73
6453;BME280;3259;51.080;13.712;2023-04-30T06:00:28;101024.28;;;25.66;44.79
6453;BME280;3259;51.080;13.712;2023-04-30T06:03:17;101026.69;;;25.61;44.96
6453;BME280;3259;51.080;13.712;2023-04-30T06:06:06;101031.97;;;25.54;45.32
6453;BME280;3259;51.080;13.712;2023-04-30T06:08:55;101034.16;;;25.51;45.33
6453;BME280;3259;51.080;13.712;2023-04-30T06:11:43;101033.31;;;25.65;44.86
6453;BME280;3259;51.080;13.712;2023-04-30T06:14:36;101032.69;;;25.63;44.78
6453;BME280;3259;51.080;13.712;2023-04-30T06:17:26;101031.50;;;25.65;44.80
6453;BME280;3259;51.080;13.712;2023-04-30T06:20:15;101045.19;;;25.77;44.86
6453;BME280;3259;51.080;13.712;2023-04-30T06:23:04;101040.22;;;25.74;44.57
6453;BME280;3259;51.080;13.712;2023-04-30T06:25:53;101030.81;;;25.77;44.61
6453;BME280;3259;51.080;13.712;2023-04-30T06:28:42;101035.91;;;25.73;44.83
6453;BME280;3259;51.080;13.712;2023-04-30T06:31:30;101041.50;;;25.77;44.70
6453;BME280;3259;51.080;13.712;2023-04-30T06:34:20;101034.88;;;25.74;45.01
6453;BME280;3259;51.080;13.712;2023-04-30T06:37:09;101043.91;;;25.73;45.10
6453;BME280;3259;51.080;13.712;2023-04-30T06:39:58;101036.16;;;25.77;45.16
6453;BME280;3259;51.080;13.712;2023-04-30T06:42:47;101039.84;;;25.77;44.87
6453;BME280;3259;51.080;13.712;2023-04-30T06:45:35;101035.72;;;25.88;44.93
6453;BME280;3259;51.080;13.712;2023-04-30T06:48:24;101035.53;;;25.90;44.90
6453;BME280;3259;51.080;13.712;2023-04-30T06:51:14;101037.47;;;25.82;44.82
6453;BME280;3259;51.080;13.712;2023-04-30T06:54:03;101042.81;;;25.82;44.98
6453;BME280;3259;51.080;13.712;2023-04-30T06:56:52;101038.03;;;25.92;44.72
6453;BME280;3259;51.080;13.712;2023-04-30T06:59:40;101038.78;;;25.86;44.83
6453;BME280;3259;51.080;13.712;2023-04-30T07:02:30;101044.13;;;25.86;45.00
6453;BME280;3259;51.080;13.712;2023-04-30T07:05:18;101037.09;;;25.84;45.52
6453;BME280;3259;51.080;13.712;2023-04-30T07:08:08;101037.75;;;25.87;44.86
6453;BME280;3259;51.080;13.712;2023-04-30T07:11:03;101038.03;;;25.77;40.18
6453;BME280;3259;51.080;13.712;2023-04-30T07:13:52;101042.56;;;25.62;36.67
6453;BME280;3259;51.080;13.712;2023-04-30T07:16:40;101042.81;;;25.53;35.61
6453;BME280;3259;51.080;13.712;2023-04-30T07:19:29;101051.50;;;25.40;34.58
6453;BME280;3259;51.080;13.712;2023-04-30T07:22:18;101050.38;;;25.35;34.04
6453;BME280;3259;51.080;13.712;2023-04-30T07:25:08;101054.16;;;25.40;33.48
6453;BME280;3259;51.080;13.712;2023-04-30T07:27:58;101048.34;;;25.37;34.85
6453;BME280;3259;51.080;13.712;2023-04-30T07:30:46;101041.16;;;25.52;36.75
6453;BME280;3259;51.080;13.712;2023-04-30T07:33:35;101047.78;;;25.84;37.16
6453;BME280;3259;51.080;13.712;2023-04-30T07:36:24;101051.28;;;25.99;37.54
6453;BME280;3259;51.080;13.712;2023-04-30T07:39:13;101053.84;;;26.07;37.75
6453;BME280;3259;51.080;13.712;2023-04-30T07:42:03;101054.53;;;26.30;37.64
6453;BME280;3259;51.080;13.712;2023-04-30T07:44:52;101054.16;;;26.33;37.71
6453;BME280;3259;51.080;13.712;2023-04-30T07:47:40;101051.59;;;26.46;37.79
6453;BME280;3259;51.080;13.712;2023-04-30T07:50:30;101055.63;;;26.50;37.74
6453;BME280;3259;51.080;13.712;2023-04-30T07:53:20;101058.94;;;26.52;38.00
6453;BME280;3259;51.080;13.712;2023-04-30T07:56:08;101059.56;;;26.54;38.17
6453;BME280;3259;51.080;13.712;2023-04-30T07:58:58;101063.09;;;26.61;37.72
6453;BME280;3259;51.080;13.712;2023-04-30T08:01:47;101064.28;;;26.52;38.41
6453;BME280;3259;51.080;13.712;2023-04-30T08:04:36;101058.22;;;26.65;38.03
6453;BME280;3259;51.080;13.712;2023-04-30T08:07:24;101062.13;;;26.48;38.37
6453;BME280;3259;51.080;13.712;2023-04-30T08:10:13;101060.97;;;26.50;38.74
6453;BME280;3259;51.080;13.712;2023-04-30T08:13:03;101064.28;;;26.52;38.78
6453;BME280;3259;51.080;13.712;2023-04-30T08:15:53;101067.31;;;26.70;38.34
6453;BME280;3259;51.080;13.712;2023-04-30T08:18:42;101061.41;;;26.75;38.32
6453;BME280;3259;51.080;13.712;2023-04-30T08:21:32;101060.59;;;26.74;38.48
6453;BME280;3259;51.080;13.712;2023-04-30T08:24:20;101064.34;;;26.80;38.23
6453;BME280;3259;51.080;13.712;2023-04-30T08:27:10;101066.81;;;26.81;38.38
6453;BME280;3259;51.080;13.712;2023-04-30T08:29:59;101071.53;;;26.79;38.24
6453;BME280;3259;51.080;13.712;2023-04-30T08:32:49;101074.22;;;26.79;38.30
6453;BME280;3259;51.080;13.712;2023-04-30T08:35:39;101067.41;;;26.41;39.00
6453;BME280;3259;51.080;13.712;2023-04-30T08:38:28;101070.19;;;26.33;39.40
6453;BME280;3259;51.080;13.712;2023-04-30T08:41:16;101080.09;;;26.33;39.91
6453;BME280;3259;51.080;13.712;2023-04-30T08:44:09;101075.63;;;26.40;39.56
6453;BME280;3259;51.080;13.712;2023-04-30T08:46:59;101080.34;;;26.52;39.26
6453;BME280;3259;51.080;13.712;2023-04-30T08:49:50;101073.13;;;26.53;39.55
6453;BME280;3259;51.080;13.712;2023-04-30T08:52:41;101082.00;;;26.39;39.38
6453;BME280;3259;51.080;13.712;2023-04-30T08:55:32;101071.78;;;26.28;39.58
6453;BME280;3259;51.080;13.712;2023-04-30T08:58:21;101072.16;;;26.25;39.84
6453;BME280;3259;51.080;13.712;2023-04-30T09:01:12;101070.19;;;26.33;39.78
6453;BME280;3259;51.080;13.712;2023-04-30T09:04:02;101070.13;;;26.27;39.48
6453;BME280;3259;51.080;13.712;2023-04-30T09:06:53;101073.38;;;26.22;38.17
6453;BME280;3259;51.080;13.712;2023-04-30T09:09:45;101075.66;;;26.25;38.98
6453;BME280;3259;51.080;13.712;2023-04-30T09:12:35;101077.53;;;26.25;39.74
6453;BME280;3259;51.080;13.712;2023-04-30T09:15:26;101072.56;;;26.22;39.46
6453;BME280;3259;51.080;13.712;2023-04-30T09:18:18;101073.44;;;26.29;39.88
6453;BME280;3259;51.080;13.712;2023-04-30T09:21:08;101078.34;;;26.25;39.26
6453;BME280;3259;51.080;13.712;2023-04-30T09:24:00;101071.72;;;26.21;38.19
6453;BME280;3259;51.080;13.712;2023-04-30T09:26:50;101078.47;;;26.17;38.76
6453;BME280;3259;51.080;13.712;2023-04-30T09:29:39;101083.31;;;26.28;38.98
6453;BME280;3259;51.080;13.712;2023-04-30T09:32:28;101076.88;;;26.23;39.65
6453;BME280;3259;51.080;13.712;2023-04-30T09:35:28;101066.81;;;26.25;39.25
6453;BME280;3259;51.080;13.712;2023-04-30T09:38:27;101071.16;;;26.26;40.07
6453;BME280;3259;51.080;13.712;2023-04-30T09:41:25;101068.78;;;26.37;39.96
6453;BME280;3259;51.080;13.712;2023-04-30T09:44:27;101059.69;;;26.67;39.44
6453;BME280;3259;51.080;13.712;2023-04-30T09:47:18;101058.91;;;26.73;39.37
6453;BME280;3259;51.080;13.712;2023-04-30T09:50:08;101065.53;;;26.56;39.73
6453;BME280;3259;51.080;13.712;2023-04-30T09:53:05;101061.44;;;26.39;40.11
6453;BME280;3259;51.080;13.712;2023-04-30T09:55:56;101053.75;;;26.36;40.39
6453;BME280;3259;51.080;13.712;2023-04-30T09:58:49;101059.19;;;26.43;40.21
6453;BME280;3259;51.080;13.712;2023-04-30T10:01:39;101054.53;;;26.30;35.59
6453;BME280;3259;51.080;13.712;2023-04-30T10:04:29;101043.69;;;26.17;34.16
6453;BME280;3259;51.080;13.712;2023-04-30T10:07:20;101051.19;;;25.93;33.13
6453;BME280;3259;51.080;13.712;2023-04-30T10:10:10;101040.22;;;25.74;32.78
6453;BME280;3259;51.080;13.712;2023-04-30T10:13:03;101031.19;;;25.75;33.05
6453;BME280;3259;51.080;13.712;2023-04-30T10:15:57;101036.16;;;26.06;31.05
6453;BME280;3259;51.080;13.712;2023-04-30T10:18:48;101040.00;;;26.18;29.87
6453;BME280;3259;51.080;13.712;2023-04-30T10:21:39;101034.50;;;26.05;29.60
6453;BME280;3259;51.080;13.712;2023-04-30T10:24:30;101032.09;;;26.10;29.84
6453;BME280;3259;51.080;13.712;2023-04-30T10:27:18;101030.81;;;26.06;29.40
6453;BME280;3259;51.080;13.712;2023-04-30T10:30:09;101032.69;;;25.92;29.38
6453;BME280;3259;51.080;13.712;2023-04-30T10:33:05;101033.72;;;25.91;29.49
6453;BME280;3259;51.080;13.712;2023-04-30T10:36:03;101031.50;;;25.80;29.64
6453;BME280;3259;51.080;13.712;2023-04-30T10:38:55;101027.16;;;25.50;29.56
6453;BME280;3259;51.080;13.712;2023-04-30T10:41:45;101023.28;;;25.38;29.69
6453;BME280;3259;51.080;13.712;2023-04-30T10:44:36;101024.13;;;25.53;31.14
6453;BME280;3259;51.080;13.712;2023-04-30T10:47:27;101021.09;;;25.56;32.43
6453;BME280;3259;51.080;13.712;2023-04-30T10:50:22;101022.75;;;25.86;33.05
6453;BME280;3259;51.080;13.712;2023-04-30T10:53:12;101021.34;;;25.61;33.60
6453;BME280;3259;51.080;13.712;2023-04-30T10:56:03;101021.69;;;26.01;34.37
6453;BME280;3259;51.080;13.712;2023-04-30T10:58:57;101011.47;;;26.04;34.71
6453;BME280;3259;51.080;13.712;2023-04-30T11:01:57;101012.88;;;26.21;34.34
6453;BME280;3259;51.080;13.712;2023-04-30T11:05:09;101010.69;;;26.10;34.93
6453;BME280;3259;51.080;13.712;2023-04-30T11:08:00;101009.19;;;26.22;34.94
6453;BME280;3259;51.080;13.712;2023-04-30T11:10:56;101012.38;;;26.32;35.10
6453;BME280;3259;51.080;13.712;2023-04-30T11:13:47;100998.59;;;26.35;35.27
6453;BME280;3259;51.080;13.712;2023-04-30T11:16:48;101006.13;;;26.46;35.06
6453;BME280;3259;51.080;13.712;2023-04-30T11:19:47;101006.91;;;26.40;35.70
6453;BME280;3259;51.080;13.712;2023-04-30T11:22:37;101000.03;;;26.31;35.89
6453;BME280;3259;51.080;13.712;2023-04-30T11:25:38;100996.31;;;26.32;36.04
6453;BME280;3259;51.080;13.712;2023-04-30T11:28:31;100986.38;;;26.47;35.87
6453;BME280;3259;51.080;13.712;2023-04-30T11:31:21;100998.81;;;26.55;35.82
6453;BME280;3259;51.080;13.712;2023-04-30T11:34:11;100990.28;;;26.66;36.05
6453;BME280;3259;51.080;13.712;2023-04-30T11:37:00;101001.19;;;26.64;36.30
6453;BME280;3259;51.080;13.712;2023-04-30T11:39:51;100993.50;;;26.82;35.99
6453;BME280;3259;51.080;13.712;2023-04-30T11:42:42;101001.53;;;26.82;36.22
6453;BME280;3259;51.080;13.712;2023-04-30T11:45:32;100995.31;;;26.75;35.92
6453;BME280;3259;51.080;13.712;2023-04-30T11:48:21;100999.88;;;26.81;36.35
6453;BME280;3259;51.080;13.712;2023-04-30T11:51:14;100997.72;;;26.70;37.12
6453;BME280;3259;51.080;13.712;2023-04-30T11:54:07;100991.50;;;26.63;36.93
6453;BME280;3259;51.080;13.712;2023-04-30T11:56:55;100991.28;;;26.86;36.59
6453;BME280;3259;51.080;13.712;2023-04-30T11:59:51;100980.97;;;26.83;35.99
6453;BME280;3259;51.080;13.712;2023-04-30T12:02:40;100984.16;;;26.72;35.81
6453;BME280;3259;51.080;13.712;2023-04-30T12:05:31;100978.38;;;26.68;35.59
6453;BME280;3259;51.080;13.712;2023-04-30T12:08:20;100974.00;;;26.88;35.24
6453;BME280;3259;51.080;13.712;2023-04-30T12:11:19;100964.25;;;26.53;35.66
6453;BME280;3259;51.080;13.712;2023-04-30T12:14:11;100963.84;;;26.35;36.14
6453;BME280;3259;51.080;13.712;2023-04-30T12:17:02;100970.19;;;26.34;36.46
6453;BME280;3259;51.080;13.712;2023-04-30T12:19:51;100964.63;;;26.29;36.52
6453;BME280;3259;51.080;13.712;2023-04-30T12:22:42;100968.56;;;26.33;36.55
6453;BME280;3259;51.080;13.712;2023-04-30T12:25:39;100970.97;;;26.28;35.89
6453;BME280;3259;51.080;13.712;2023-04-30T12:28:30;100962.97;;;26.28;35.90
6453;BME280;3259;51.080;13.712;2023-04-30T12:31:22;100962.31;;;26.26;36.43
6453;BME280;3259;51.080;13.712;2023-04-30T12:34:14;100963.19;;;26.33;35.91
6453;BME280;3259;51.080;13.712;2023-04-30T12:37:04;100959.91;;;26.31;36.34
6453;BME280;3259;51.080;13.712;2023-04-30T12:39:54;100954.53;;;26.31;36.38
6453;BME280;3259;51.080;13.712;2023-04-30T12:42:44;100957.03;;;26.33;36.33
6453;BME280;3259;51.080;13.712;2023-04-30T12:45:47;100950.09;;;26.38;36.82
6453;BME280;3259;51.080;13.712;2023-04-30T12:48:42;100946.19;;;26.89;35.74
6453;BME280;3259;51.080;13.712;2023-04-30T12:51:34;100940.75;;;27.04;35.43
6453;BME280;3259;51.080;13.712;2023-04-30T12:54:27;100945.78;;;27.13;35.27
6453;BME280;3259;51.080;13.712;2023-04-30T12:57:16;100937.31;;;27.16;35.40
6453;BME280;3259;51.080;13.712;2023-04-30T13:00:06;100930.56;;;27.27;35.16
6453;BME280;3259;51.080;13.712;2023-04-30T13:02:55;100928.94;;;27.32;35.13
6453;BME280;3259;51.080;13.712;2023-04-30T13:05:46;100929.16;;;27.31;34.78
6453;BME280;3259;51.080;13.712;2023-04-30T13:08:40;100927.75;;;27.41;34.31
6453;BME280;3259;51.080;13.712;2023-04-30T13:11:44;100925.94;;;27.48;34.59
6453;BME280;3259;51.080;13.712;2023-04-30T13:14:33;100916.84;;;27.43;34.53
6453;BME280;3259;51.080;13.712;2023-04-30T13:17:22;100916.47;;;27.52;34.48
6453;BME280;3259;51.080;13.712;2023-04-30T13:20:12;100916.28;;;27.54;34.36
6453;BME280;3259;51.080;13.712;2023-04-30T13:23:03;100923.06;;;27.56;34.05
6453;BME280;3259;51.080;13.712;2023-04-30T13:25:53;100913.34;;;27.42;34.31
6453;BME280;3259;51.080;13.712;2023-04-30T13:28:42;100913.47;;;27.21;34.43
6453;BME280;3259;51.080;13.712;2023-04-30T13:31:31;100911.03;;;26.99;34.67
6453;BME280;3259;51.080;13.712;2023-04-30T13:34:19;100908.28;;;27.13;35.14
6453;BME280;3259;51.080;13.712;2023-04-30T13:37:08;100909.13;;;27.20;35.11
6453;BME280;3259;51.080;13.712;2023-04-30T13:39:57;100904.56;;;27.14;34.87
6453;BME280;3259;51.080;13.712;2023-04-30T13:42:48;100891.06;;;27.35;34.40
6453;BME280;3259;51.080;13.712;2023-04-30T13:45:37;100897.59;;;27.20;34.87
6453;BME280;3259;51.080;13.712;2023-04-30T13:48:25;100894.94;;;26.92;35.00
6453;BME280;3259;51.080;13.712;2023-04-30T13:51:14;100889.72;;;27.12;35.04
6453;BME280;3259;51.080;13.712;2023-04-30T13:54:03;100895.19;;;27.44;33.99
6453;BME280;3259;51.080;13.712;2023-04-30T13:56:52;100894.81;;;27.41;34.23
6453;BME280;3259;51.080;13.712;2023-04-30T13:59:42;100887.81;;;27.46;33.60
6453;BME280;3259;51.080;13.712;2023-04-30T14:02:31;100883.13;;;27.68;33.39
6453;BME280;3259;51.080;13.712;2023-04-30T14:05:20;100878.78;;;27.67;33.95
6453;BME280;3259;51.080;13.712;2023-04-30T14:08:08;100882.09;;;27.62;33.62
6453;BME280;3259;51.080;13.712;2023-04-30T14:10:58;100884.91;;;27.48;33.69
6453;BME280;3259;51.080;13.712;2023-04-30T14:13:47;100879.88;;;27.19;33.94
6453;BME280;3259;51.080;13.712;2023-04-30T14:16:37;100881.22;;;27.08;34.38
6453;BME280;3259;51.080;13.712;2023-04-30T14:19:26;100876.50;;;27.10;34.76
6453;BME280;3259;51.080;13.712;2023-04-30T14:22:15;100870.47;;;27.49;34.07
6453;BME280;3259;51.080;13.712;2023-04-30T14:25:04;100874.72;;;27.24;34.15
6453;BME280;3259;51.080;13.712;2023-04-30T14:27:53;100865.41;;;27.13;33.88
6453;BME280;3259;51.080;13.712;2023-04-30T14:30:42;100875.03;;;27.08;33.90
6453;BME280;3259;51.080;13.712;2023-04-30T14:33:33;100869.50;;;27.09;33.71
6453;BME280;3259;51.080;13.712;2023-04-30T14:36:22;100864.13;;;27.09;33.82
6453;BME280;3259;51.080;13.712;2023-04-30T14:39:10;100865.41;;;27.13;33.76
6453;BME280;3259;51.080;13.712;2023-04-30T14:41:59;100862.16;;;27.24;34.04
6453;BME280;3259;51.080;13.712;2023-04-30T14:44:49;100864.13;;;27.09;30.69
6453;BME280;3259;51.080;13.712;2023-04-30T14:47:39;100859.16;;;27.06;27.50
6453;BME280;3259;51.080;13.712;2023-04-30T14:50:29;100855.81;;;26.98;26.76
6453;BME280;3259;51.080;13.712;2023-04-30T14:53:18;100860.06;;;27.13;26.48
6453;BME280;3259;51.080;13.712;2023-04-30T14:56:07;100859.25;;;27.19;25.63
6453;BME280;3259;51.080;13.712;2023-04-30T14:58:56;100852.22;;;27.12;25.07
6453;BME280;3259;51.080;13.712;2023-04-30T15:01:55;100850.19;;;27.20;23.75